»·PEaware :: N833JS KTOA-KCMA

N833JS :: KTOA-KCMA

FLIGHT INFORMATION

Flight Status: Arrived
Operator: Privately registered:
United States
More flights under this callsign
Pilot: Peter H. (12565)
Aircraft: CESSNA 172 SKYHAWK
(C172)
More flights by this aircraft type
Origin: KTOA Zamperini
United States
Destination: KCMA Camarillo
United States
More flights between these airports :: More routes between these airports
Route: +LIMBO SLI V23 POPPR SMO125R SMO VNY
File this flight plan on PilotEdge
Remarks: CSTN24
Altitude:
(Current/Filed)
4,000ft
Speed:
(Current/Filed)
110kts
Departed: 20-Dec-17 11:34 AM
Arrived: 20-Dec-17 12:23 PM
Distance/Time
Traveled:
45nm/0:49
Distance/Time
To Go:
Arrived

Flight Plot

Page will automatically refresh every two minutes.

Flight plan parsing failed; only flown route is shown


Map Options




Map Legend


Flown Route
Filed Route
Departure Airport
Arrival Airport
Navaid (VOR, NDB)
Fix

Horizontal Profiles

Position Reports

Time Latitude Longitude Heading Altitude Ground
Speed
20-Dec-17 11:27 33.803347 -118.344052 39 102ft 0kts
20-Dec-17 11:28 33.803347 -118.344051 39 102ft 0kts
20-Dec-17 11:29 33.803347 -118.344051 39 102ft 0kts
20-Dec-17 11:30 33.803347 -118.344051 39 102ft 0kts
20-Dec-17 11:31 33.803347 -118.344051 39 102ft 0kts
20-Dec-17 11:32 33.803347 -118.344051 39 102ft 0kts
20-Dec-17 11:33 33.803347 -118.344051 39 102ft 0kts
20-Dec-17 11:34 33.803347 -118.344051 39 102ft 0kts
20-Dec-17 11:35 33.803347 -118.344051 39 102ft 0kts
20-Dec-17 11:36 33.803347 -118.344051 39 102ft 0kts
20-Dec-17 11:37 33.803347 -118.344051 39 102ft 0kts
20-Dec-17 11:38 33.801404 -118.341239 132 106ft 34kts
20-Dec-17 11:39 33.797921 -118.334375 26 106ft 18kts
20-Dec-17 11:40 33.800831 -118.334714 307 98ft 52kts
20-Dec-17 11:41 33.808283 -118.345743 308 491ft 79kts
20-Dec-17 11:42 33.818570 -118.358980 308 1185ft 69kts
20-Dec-17 11:43 33.830742 -118.373783 309 1905ft 67kts
20-Dec-17 11:44 33.842800 -118.389247 307 2529ft 76kts
20-Dec-17 11:45 33.858505 -118.410326 308 3031ft 91kts
20-Dec-17 11:46 33.873253 -118.433732 347 3521ft 101kts
20-Dec-17 11:47 33.897194 -118.427227 9 3927ft 104kts
20-Dec-17 11:48 33.921240 -118.419645 9 3972ft 117kts
20-Dec-17 11:49 33.948842 -118.411096 9 3960ft 115kts
20-Dec-17 11:50 33.973093 -118.419680 316 3961ft 105kts
20-Dec-17 11:51 33.993976 -118.440672 316 3961ft 104kts
20-Dec-17 11:52 34.014618 -118.456730 345 3943ft 112kts
20-Dec-17 11:53 34.044540 -118.462204 349 3935ft 116kts
20-Dec-17 11:54 34.072627 -118.474409 352 3933ft 118kts
20-Dec-17 11:55 34.103140 -118.477969 351 3937ft 119kts
20-Dec-17 11:56 34.134372 -118.481524 352 3936ft 117kts
20-Dec-17 11:57 34.163349 -118.484808 352 3936ft 118kts
20-Dec-17 11:58 34.192959 -118.488187 352 3933ft 118kts
20-Dec-17 11:59 34.220390 -118.497814 295 3985ft 111kts
20-Dec-17 12:00 34.222519 -118.534335 270 3991ft 112kts
20-Dec-17 12:01 34.222277 -118.571240 269 3992ft 112kts
20-Dec-17 12:02 34.221761 -118.607115 270 3980ft 112kts
20-Dec-17 12:03 34.221276 -118.642003 271 3935ft 114kts
20-Dec-17 12:04 34.220763 -118.677900 266 3938ft 112kts
20-Dec-17 12:05 34.220288 -118.707957 265 3934ft 111kts
20-Dec-17 12:06 34.219980 -118.744612 276 3930ft 111kts
20-Dec-17 12:07 34.232815 -118.776473 299 3934ft 113kts
20-Dec-17 12:08 34.244788 -118.795397 316 3933ft 112kts
20-Dec-17 12:09 34.254368 -118.823344 282 3916ft 99kts
20-Dec-17 12:10 34.261458 -118.852111 282 3906ft 93kts
20-Dec-17 12:11 34.271575 -118.874798 340 3906ft 98kts
20-Dec-17 12:12 34.283794 -118.857007 101 3913ft 96kts
20-Dec-17 12:13 34.279153 -118.823215 103 3911ft 112kts
20-Dec-17 12:14 34.273775 -118.784969 103 3910ft 120kts
20-Dec-17 12:15 34.268849 -118.747065 103 3908ft 112kts
20-Dec-17 12:16 34.255987 -118.718525 169 3907ft 105kts
20-Dec-17 12:17 34.227926 -118.720443 222 3905ft 115kts
20-Dec-17 12:18 34.214399 -118.756106 255 3910ft 120kts
20-Dec-17 12:19 34.212294 -118.794193 266 3904ft 121kts
20-Dec-17 12:20 34.212151 -118.834314 266 3545ft 115kts
20-Dec-17 12:21 34.212258 -118.871045 265 3028ft 109kts
20-Dec-17 12:22 34.212323 -118.905678 267 2818ft 98kts
20-Dec-17 12:23 34.212592 -118.938339 267 2447ft 114kts
20-Dec-17 12:24 34.212918 -118.972545 268 1939ft 113kts
20-Dec-17 12:25 34.212967 -119.009323 270 1331ft 105kts
20-Dec-17 12:26 34.213546 -119.039531 268 787ft 71kts
20-Dec-17 12:27 34.213587 -119.060990 266 479ft 65kts
20-Dec-17 12:28 34.213881 -119.080009 260 198ft 58kts
20-Dec-17 12:29 34.213086 -119.090728 210 69ft 0kts
20-Dec-17 12:30 34.211327 -119.089753 172 69ft 13kts
20-Dec-17 12:31 34.210904 -119.090841 258 67ft 0kts
20-Dec-17 12:32 34.210904 -119.090841 258 67ft 0kts

Navigation Log

Ident Type
Flight plan parsing failed, navigation log unavailable